sensor_id;sensor_type;location;lat;lon;timestamp;temperature;humidity
31133;DHT22;17779;50.942;4.026;2023-02-10T00:00:25;3.50;99.90
31133;DHT22;17779;50.942;4.026;2023-02-10T00:02:51;3.50;99.90
31133;DHT22;17779;50.942;4.026;2023-02-10T00:05:17;3.40;99.90
31133;DHT22;17779;50.942;4.026;2023-02-10T00:07:42;3.30;99.90
31133;DHT22;17779;50.942;4.026;2023-02-10T00:10:08;3.40;99.90
31133;DHT22;17779;50.942;4.026;2023-02-10T00:12:37;3.40;99.90
31133;DHT22;17779;50.942;4.026;2023-02-10T00:15:03;3.60;99.90
31133;DHT22;17779;50.942;4.026;2023-02-10T00:17:29;3.60;99.90
31133;DHT22;17779;50.942;4.026;2023-02-10T00:19:55;3.60;99.90
31133;DHT22;17779;50.942;4.026;2023-02-10T00:22:21;3.60;99.90
31133;DHT22;17779;50.942;4.026;2023-02-10T00:24:46;3.40;99.90
31133;DHT22;17779;50.942;4.026;2023-02-10T00:27:12;3.40;99.90
31133;DHT22;17779;50.942;4.026;2023-02-10T00:29:38;3.50;99.90
31133;DHT22;17779;50.942;4.026;2023-02-10T00:32:03;3.60;99.90
31133;DHT22;17779;50.942;4.026;2023-02-10T00:34:29;3.60;99.90
31133;DHT22;17779;50.942;4.026;2023-02-10T00:36:55;3.50;99.90
31133;DHT22;17779;50.942;4.026;2023-02-10T00:39:21;3.50;99.90
31133;DHT22;17779;50.942;4.026;2023-02-10T00:41:46;3.40;99.90
31133;DHT22;17779;50.942;4.026;2023-02-10T00:44:12;3.60;99.90
31133;DHT22;17779;50.942;4.026;2023-02-10T00:46:38;3.50;99.90
31133;DHT22;17779;50.942;4.026;2023-02-10T00:49:04;3.50;99.90
31133;DHT22;17779;50.942;4.026;2023-02-10T00:51:29;3.40;99.90
31133;DHT22;17779;50.942;4.026;2023-02-10T00:53:55;3.30;99.90
31133;DHT22;17779;50.942;4.026;2023-02-10T00:56:21;3.00;99.90
31133;DHT22;17779;50.942;4.026;2023-02-10T00:58:47;2.70;99.90
31133;DHT22;17779;50.942;4.026;2023-02-10T01:01:13;2.60;99.90
31133;DHT22;17779;50.942;4.026;2023-02-10T01:03:39;2.60;99.90
31133;DHT22;17779;50.942;4.026;2023-02-10T01:06:06;2.80;99.90
31133;DHT22;17779;50.942;4.026;2023-02-10T01:08:32;2.90;99.90
31133;DHT22;17779;50.942;4.026;2023-02-10T01:11:01;2.80;99.90
31133;DHT22;17779;50.942;4.026;2023-02-10T01:13:27;2.70;99.90
31133;DHT22;17779;50.942;4.026;2023-02-10T01:15:53;2.60;99.90
31133;DHT22;17779;50.942;4.026;2023-02-10T01:18:19;2.60;99.90
31133;DHT22;17779;50.942;4.026;2023-02-10T01:20:44;2.60;99.90
31133;DHT22;17779;50.942;4.026;2023-02-10T01:23:10;2.60;99.90
31133;DHT22;17779;50.942;4.026;2023-02-10T01:25:36;2.70;99.90
31133;DHT22;17779;50.942;4.026;2023-02-10T01:28:03;2.80;99.90
31133;DHT22;17779;50.942;4.026;2023-02-10T01:30:29;2.80;99.90
31133;DHT22;17779;50.942;4.026;2023-02-10T01:32:54;2.80;99.90
31133;DHT22;17779;50.942;4.026;2023-02-10T01:35:20;2.70;99.90
31133;DHT22;17779;50.942;4.026;2023-02-10T01:37:46;2.70;99.90
31133;DHT22;17779;50.942;4.026;2023-02-10T01:40:12;2.50;99.90
31133;DHT22;17779;50.942;4.026;2023-02-10T01:42:38;2.40;99.90
31133;DHT22;17779;50.942;4.026;2023-02-10T01:45:11;2.30;99.90
31133;DHT22;17779;50.942;4.026;2023-02-10T01:47:38;2.40;99.90
31133;DHT22;17779;50.942;4.026;2023-02-10T01:50:04;2.30;99.90
31133;DHT22;17779;50.942;4.026;2023-02-10T01:52:30;2.20;99.90
31133;DHT22;17779;50.942;4.026;2023-02-10T01:57:30;2.10;99.90
31133;DHT22;17779;50.942;4.026;2023-02-10T01:59:57;2.00;99.90
31133;DHT22;17779;50.942;4.026;2023-02-10T02:02:23;2.00;99.90
31133;DHT22;17779;50.942;4.026;2023-02-10T02:04:50;2.20;99.90
31133;DHT22;17779;50.942;4.026;2023-02-10T02:07:20;2.30;99.90
31133;DHT22;17779;50.942;4.026;2023-02-10T02:09:47;2.30;99.90
31133;DHT22;17779;50.942;4.026;2023-02-10T02:17:28;2.40;99.90
31133;DHT22;17779;50.942;4.026;2023-02-10T02:28:22;2.40;99.90
31133;DHT22;17779;50.942;4.026;2023-02-10T02:33:19;2.50;99.90
31133;DHT22;17779;50.942;4.026;2023-02-10T02:35:52;2.30;99.90
31133;DHT22;17779;50.942;4.026;2023-02-10T02:38:19;2.10;99.90
31133;DHT22;17779;50.942;4.026;2023-02-10T02:40:45;2.10;99.90
31133;DHT22;17779;50.942;4.026;2023-02-10T02:43:10;2.10;99.90
31133;DHT22;17779;50.942;4.026;2023-02-10T03:01:34;2.40;99.90
31133;DHT22;17779;50.942;4.026;2023-02-10T03:04:00;2.30;99.90
31133;DHT22;17779;50.942;4.026;2023-02-10T03:06:28;2.10;99.90
31133;DHT22;17779;50.942;4.026;2023-02-10T03:08:54;2.00;99.90
31133;DHT22;17779;50.942;4.026;2023-02-10T03:11:20;2.00;99.90
31133;DHT22;17779;50.942;4.026;2023-02-10T03:13:45;2.10;99.90
31133;DHT22;17779;50.942;4.026;2023-02-10T03:16:11;2.20;99.90
31133;DHT22;17779;50.942;4.026;2023-02-10T03:18:37;2.20;99.90
31133;DHT22;17779;50.942;4.026;2023-02-10T03:21:03;2.20;99.90
31133;DHT22;17779;50.942;4.026;2023-02-10T03:23:28;2.20;99.90
31133;DHT22;17779;50.942;4.026;2023-02-10T03:25:56;2.20;99.90
31133;DHT22;17779;50.942;4.026;2023-02-10T03:28:22;2.20;99.90
31133;DHT22;17779;50.942;4.026;2023-02-10T03:30:48;2.20;99.90
31133;DHT22;17779;50.942;4.026;2023-02-10T03:33:14;2.30;99.90
31133;DHT22;17779;50.942;4.026;2023-02-10T03:35:41;2.20;99.90
31133;DHT22;17779;50.942;4.026;2023-02-10T03:38:07;2.20;99.90
31133;DHT22;17779;50.942;4.026;2023-02-10T03:40:33;2.20;99.90
31133;DHT22;17779;50.942;4.026;2023-02-10T03:42:59;2.30;99.90
31133;DHT22;17779;50.942;4.026;2023-02-10T03:45:24;2.20;99.90
31133;DHT22;17779;50.942;4.026;2023-02-10T03:47:50;2.20;99.90
31133;DHT22;17779;50.942;4.026;2023-02-10T03:50:16;2.10;99.90
31133;DHT22;17779;50.942;4.026;2023-02-10T03:52:41;2.10;99.90
31133;DHT22;17779;50.942;4.026;2023-02-10T03:55:07;2.00;99.90
31133;DHT22;17779;50.942;4.026;2023-02-10T03:57:33;2.00;99.90
31133;DHT22;17779;50.942;4.026;2023-02-10T03:59:59;1.90;99.90
31133;DHT22;17779;50.942;4.026;2023-02-10T04:02:24;1.90;99.90
31133;DHT22;17779;50.942;4.026;2023-02-10T04:04:50;1.90;99.90
31133;DHT22;17779;50.942;4.026;2023-02-10T04:07:16;2.10;99.90
31133;DHT22;17779;50.942;4.026;2023-02-10T04:09:42;2.10;99.90
31133;DHT22;17779;50.942;4.026;2023-02-10T04:12:08;2.20;99.90
31133;DHT22;17779;50.942;4.026;2023-02-10T04:14:34;2.20;99.90
31133;DHT22;17779;50.942;4.026;2023-02-10T04:17:00;2.10;99.90
31133;DHT22;17779;50.942;4.026;2023-02-10T04:19:25;2.20;99.90
31133;DHT22;17779;50.942;4.026;2023-02-10T04:21:51;2.10;99.90
31133;DHT22;17779;50.942;4.026;2023-02-10T04:24:17;2.00;99.90
31133;DHT22;17779;50.942;4.026;2023-02-10T04:26:43;2.10;99.90
31133;DHT22;17779;50.942;4.026;2023-02-10T04:29:08;1.80;99.90
31133;DHT22;17779;50.942;4.026;2023-02-10T04:31:34;1.70;99.90
31133;DHT22;17779;50.942;4.026;2023-02-10T04:34:00;1.60;99.90
31133;DHT22;17779;50.942;4.026;2023-02-10T04:36:26;1.60;99.90
31133;DHT22;17779;50.942;4.026;2023-02-10T04:38:51;1.60;99.90
31133;DHT22;17779;50.942;4.026;2023-02-10T04:41:17;1.70;99.90
31133;DHT22;17779;50.942;4.026;2023-02-10T04:43:43;2.10;99.90
31133;DHT22;17779;50.942;4.026;2023-02-10T04:46:10;2.30;99.90
31133;DHT22;17779;50.942;4.026;2023-02-10T04:48:35;2.30;99.90
31133;DHT22;17779;50.942;4.026;2023-02-10T04:51:08;2.20;99.90
31133;DHT22;17779;50.942;4.026;2023-02-10T04:53:34;2.20;99.90
31133;DHT22;17779;50.942;4.026;2023-02-10T04:56:00;2.20;99.90
31133;DHT22;17779;50.942;4.026;2023-02-10T04:58:25;2.00;99.90
31133;DHT22;17779;50.942;4.026;2023-02-10T05:00:53;2.00;99.90
31133;DHT22;17779;50.942;4.026;2023-02-10T05:03:19;2.10;99.90
31133;DHT22;17779;50.942;4.026;2023-02-10T05:05:45;2.10;99.90
31133;DHT22;17779;50.942;4.026;2023-02-10T05:08:11;2.00;99.90
31133;DHT22;17779;50.942;4.026;2023-02-10T05:10:36;1.90;99.90
31133;DHT22;17779;50.942;4.026;2023-02-10T05:13:02;1.80;99.90
31133;DHT22;17779;50.942;4.026;2023-02-10T05:15:27;1.90;99.90
31133;DHT22;17779;50.942;4.026;2023-02-10T05:17:53;2.10;99.90
31133;DHT22;17779;50.942;4.026;2023-02-10T05:20:19;2.00;99.90
31133;DHT22;17779;50.942;4.026;2023-02-10T05:22:45;2.00;99.90
31133;DHT22;17779;50.942;4.026;2023-02-10T05:25:10;2.00;99.90
31133;DHT22;17779;50.942;4.026;2023-02-10T05:27:36;2.10;99.90
31133;DHT22;17779;50.942;4.026;2023-02-10T05:30:03;2.20;99.90
31133;DHT22;17779;50.942;4.026;2023-02-10T05:32:30;2.20;99.90
31133;DHT22;17779;50.942;4.026;2023-02-10T05:34:55;2.20;99.90
31133;DHT22;17779;50.942;4.026;2023-02-10T05:37:21;2.10;99.90
31133;DHT22;17779;50.942;4.026;2023-02-10T05:39:47;2.10;99.90
31133;DHT22;17779;50.942;4.026;2023-02-10T05:42:12;2.20;99.90
31133;DHT22;17779;50.942;4.026;2023-02-10T05:44:38;2.00;99.90
31133;DHT22;17779;50.942;4.026;2023-02-10T05:47:04;2.20;99.90
31133;DHT22;17779;50.942;4.026;2023-02-10T05:49:30;2.20;99.90
31133;DHT22;17779;50.942;4.026;2023-02-10T05:51:56;2.20;99.90
31133;DHT22;17779;50.942;4.026;2023-02-10T05:54:21;2.10;99.90
31133;DHT22;17779;50.942;4.026;2023-02-10T05:56:47;2.10;99.90
31133;DHT22;17779;50.942;4.026;2023-02-10T05:59:15;2.00;99.90
31133;DHT22;17779;50.942;4.026;2023-02-10T06:01:41;2.00;99.90
31133;DHT22;17779;50.942;4.026;2023-02-10T06:04:07;1.90;99.90
31133;DHT22;17779;50.942;4.026;2023-02-10T06:06:33;2.00;99.90
31133;DHT22;17779;50.942;4.026;2023-02-10T06:08:59;2.10;99.90
31133;DHT22;17779;50.942;4.026;2023-02-10T06:11:24;2.10;99.90
31133;DHT22;17779;50.942;4.026;2023-02-10T06:13:50;1.90;99.90
31133;DHT22;17779;50.942;4.026;2023-02-10T06:16:16;1.80;99.90
31133;DHT22;17779;50.942;4.026;2023-02-10T06:18:45;1.70;99.90
31133;DHT22;17779;50.942;4.026;2023-02-10T06:21:13;1.90;99.90
31133;DHT22;17779;50.942;4.026;2023-02-10T06:23:39;2.10;99.90
31133;DHT22;17779;50.942;4.026;2023-02-10T06:26:05;2.20;99.90
31133;DHT22;17779;50.942;4.026;2023-02-10T06:28:31;2.20;99.90
31133;DHT22;17779;50.942;4.026;2023-02-10T06:30:58;2.10;99.90
31133;DHT22;17779;50.942;4.026;2023-02-10T06:33:24;2.10;99.90
31133;DHT22;17779;50.942;4.026;2023-02-10T06:35:50;2.00;99.90
31133;DHT22;17779;50.942;4.026;2023-02-10T06:38:16;2.00;99.90
31133;DHT22;17779;50.942;4.026;2023-02-10T06:40:41;2.00;99.90
31133;DHT22;17779;50.942;4.026;2023-02-10T06:43:08;2.10;99.90
31133;DHT22;17779;50.942;4.026;2023-02-10T06:45:34;1.90;99.90
31133;DHT22;17779;50.942;4.026;2023-02-10T06:48:00;1.80;99.90
31133;DHT22;17779;50.942;4.026;2023-02-10T06:50:26;1.90;99.90
31133;DHT22;17779;50.942;4.026;2023-02-10T06:52:52;2.10;99.90
31133;DHT22;17779;50.942;4.026;2023-02-10T06:55:18;2.30;99.90
31133;DHT22;17779;50.942;4.026;2023-02-10T06:57:44;2.20;99.90
31133;DHT22;17779;50.942;4.026;2023-02-10T07:00:11;2.10;99.90
31133;DHT22;17779;50.942;4.026;2023-02-10T07:02:37;2.00;99.90
31133;DHT22;17779;50.942;4.026;2023-02-10T07:05:04;2.00;99.90
31133;DHT22;17779;50.942;4.026;2023-02-10T07:07:31;2.10;99.90
31133;DHT22;17779;50.942;4.026;2023-02-10T07:09:57;2.10;99.90
31133;DHT22;17779;50.942;4.026;2023-02-10T07:12:22;2.10;99.90
31133;DHT22;17779;50.942;4.026;2023-02-10T07:14:50;2.20;99.90
31133;DHT22;17779;50.942;4.026;2023-02-10T07:17:16;2.30;99.90
31133;DHT22;17779;50.942;4.026;2023-02-10T07:19:42;2.30;99.90
31133;DHT22;17779;50.942;4.026;2023-02-10T07:22:08;2.20;99.90
31133;DHT22;17779;50.942;4.026;2023-02-10T07:24:34;2.20;99.90
31133;DHT22;17779;50.942;4.026;2023-02-10T07:26:59;2.20;99.90
31133;DHT22;17779;50.942;4.026;2023-02-10T07:29:27;2.40;99.90
31133;DHT22;17779;50.942;4.026;2023-02-10T07:31:52;2.40;99.90
31133;DHT22;17779;50.942;4.026;2023-02-10T07:34:18;2.40;99.90
31133;DHT22;17779;50.942;4.026;2023-02-10T07:36:49;2.50;99.90
31133;DHT22;17779;50.942;4.026;2023-02-10T07:39:20;2.70;99.90
31133;DHT22;17779;50.942;4.026;2023-02-10T07:41:45;2.70;99.90
31133;DHT22;17779;50.942;4.026;2023-02-10T07:44:11;2.70;99.90
31133;DHT22;17779;50.942;4.026;2023-02-10T07:46:37;2.80;99.90
31133;DHT22;17779;50.942;4.026;2023-02-10T07:49:03;2.80;99.90
31133;DHT22;17779;50.942;4.026;2023-02-10T07:51:28;3.10;99.90
31133;DHT22;17779;50.942;4.026;2023-02-10T07:53:54;3.10;99.90
31133;DHT22;17779;50.942;4.026;2023-02-10T07:56:20;3.00;99.90
31133;DHT22;17779;50.942;4.026;2023-02-10T07:58:45;3.00;99.90
31133;DHT22;17779;50.942;4.026;2023-02-10T08:01:11;3.10;99.90
31133;DHT22;17779;50.942;4.026;2023-02-10T08:03:37;3.10;99.90
31133;DHT22;17779;50.942;4.026;2023-02-10T08:06:03;3.20;99.90
31133;DHT22;17779;50.942;4.026;2023-02-10T08:08:29;3.10;99.90
31133;DHT22;17779;50.942;4.026;2023-02-10T08:10:54;3.10;99.90
31133;DHT22;17779;50.942;4.026;2023-02-10T08:13:21;3.30;99.90
31133;DHT22;17779;50.942;4.026;2023-02-10T08:15:47;3.20;99.90
31133;DHT22;17779;50.942;4.026;2023-02-10T08:18:13;3.20;99.90
31133;DHT22;17779;50.942;4.026;2023-02-10T08:20:38;3.20;99.90
31133;DHT22;17779;50.942;4.026;2023-02-10T08:23:05;3.20;99.90
31133;DHT22;17779;50.942;4.026;2023-02-10T08:25:31;3.50;99.90
31133;DHT22;17779;50.942;4.026;2023-02-10T08:28:00;3.40;99.90
31133;DHT22;17779;50.942;4.026;2023-02-10T08:30:25;3.30;99.90
31133;DHT22;17779;50.942;4.026;2023-02-10T08:32:51;3.40;99.90
31133;DHT22;17779;50.942;4.026;2023-02-10T08:35:17;3.40;99.90
31133;DHT22;17779;50.942;4.026;2023-02-10T08:37:43;3.50;99.90
31133;DHT22;17779;50.942;4.026;2023-02-10T08:40:09;3.50;99.90
31133;DHT22;17779;50.942;4.026;2023-02-10T08:42:35;3.60;99.90
31133;DHT22;17779;50.942;4.026;2023-02-10T08:45:01;3.60;99.90
31133;DHT22;17779;50.942;4.026;2023-02-10T08:47:29;3.70;99.90
31133;DHT22;17779;50.942;4.026;2023-02-10T08:49:54;3.70;99.90
31133;DHT22;17779;50.942;4.026;2023-02-10T08:52:21;3.70;99.90
31133;DHT22;17779;50.942;4.026;2023-02-10T08:54:47;3.80;99.90
31133;DHT22;17779;50.942;4.026;2023-02-10T08:57:13;3.80;99.90
31133;DHT22;17779;50.942;4.026;2023-02-10T08:59:39;3.90;99.90
31133;DHT22;17779;50.942;4.026;2023-02-10T09:02:04;4.00;99.90
31133;DHT22;17779;50.942;4.026;2023-02-10T09:04:30;3.90;99.90
31133;DHT22;17779;50.942;4.026;2023-02-10T09:06:56;4.00;99.90
31133;DHT22;17779;50.942;4.026;2023-02-10T09:09:23;4.00;99.90
31133;DHT22;17779;50.942;4.026;2023-02-10T09:11:50;4.00;99.90
31133;DHT22;17779;50.942;4.026;2023-02-10T09:14:16;4.20;99.90
31133;DHT22;17779;50.942;4.026;2023-02-10T09:16:42;4.20;99.90
31133;DHT22;17779;50.942;4.026;2023-02-10T09:19:08;4.30;99.90
31133;DHT22;17779;50.942;4.026;2023-02-10T09:21:34;4.40;99.90
31133;DHT22;17779;50.942;4.026;2023-02-10T09:23:59;4.30;99.90
31133;DHT22;17779;50.942;4.026;2023-02-10T09:26:25;4.40;99.90
31133;DHT22;17779;50.942;4.026;2023-02-10T09:28:51;4.60;99.90
31133;DHT22;17779;50.942;4.026;2023-02-10T09:31:16;4.70;99.90
31133;DHT22;17779;50.942;4.026;2023-02-10T09:33:43;4.70;99.90
31133;DHT22;17779;50.942;4.026;2023-02-10T09:36:18;5.10;99.90
31133;DHT22;17779;50.942;4.026;2023-02-10T09:38:44;5.00;99.90
31133;DHT22;17779;50.942;4.026;2023-02-10T09:41:16;4.90;99.90
31133;DHT22;17779;50.942;4.026;2023-02-10T09:46:27;4.80;99.90
31133;DHT22;17779;50.942;4.026;2023-02-10T09:49:01;4.90;99.90
31133;DHT22;17779;50.942;4.026;2023-02-10T09:54:08;5.10;99.90
31133;DHT22;17779;50.942;4.026;2023-02-10T09:56:34;5.20;99.90
31133;DHT22;17779;50.942;4.026;2023-02-10T09:59:00;6.40;99.90
31133;DHT22;17779;50.942;4.026;2023-02-10T10:01:28;6.30;99.90
31133;DHT22;17779;50.942;4.026;2023-02-10T10:04:08;6.10;99.90
31133;DHT22;17779;50.942;4.026;2023-02-10T10:06:36;5.70;99.90
31133;DHT22;17779;50.942;4.026;2023-02-10T10:16:47;5.60;99.90
31133;DHT22;17779;50.942;4.026;2023-02-10T10:24:41;5.40;99.90
31133;DHT22;17779;50.942;4.026;2023-02-10T10:29:53;5.40;99.90
31133;DHT22;17779;50.942;4.026;2023-02-10T10:34:50;5.50;99.90
31133;DHT22;17779;50.942;4.026;2023-02-10T10:37:18;5.50;99.90
31133;DHT22;17779;50.942;4.026;2023-02-10T10:39:45;5.50;99.90
31133;DHT22;17779;50.942;4.026;2023-02-10T10:44:43;5.60;99.90
31133;DHT22;17779;50.942;4.026;2023-02-10T10:47:12;5.70;99.90
31133;DHT22;17779;50.942;4.026;2023-02-10T10:49:38;5.80;99.90
31133;DHT22;17779;50.942;4.026;2023-02-10T10:52:16;5.80;99.90
31133;DHT22;17779;50.942;4.026;2023-02-10T10:54:43;5.80;99.90
31133;DHT22;17779;50.942;4.026;2023-02-10T10:57:09;5.80;99.90
31133;DHT22;17779;50.942;4.026;2023-02-10T10:59:43;5.90;99.90
31133;DHT22;17779;50.942;4.026;2023-02-10T11:02:12;6.10;99.90
31133;DHT22;17779;50.942;4.026;2023-02-10T11:04:38;6.20;99.90
31133;DHT22;17779;50.942;4.026;2023-02-10T11:07:08;6.50;99.90
31133;DHT22;17779;50.942;4.026;2023-02-10T11:09:35;6.50;99.90
31133;DHT22;17779;50.942;4.026;2023-02-10T11:12:20;6.80;99.90
31133;DHT22;17779;50.942;4.026;2023-02-10T11:14:50;6.80;99.90
31133;DHT22;17779;50.942;4.026;2023-02-10T11:17:36;6.90;99.90
31133;DHT22;17779;50.942;4.026;2023-02-10T11:20:05;7.00;99.90
31133;DHT22;17779;50.942;4.026;2023-02-10T11:22:42;6.90;99.90
31133;DHT22;17779;50.942;4.026;2023-02-10T11:25:24;6.80;99.90
31133;DHT22;17779;50.942;4.026;2023-02-10T11:27:51;6.90;99.90
31133;DHT22;17779;50.942;4.026;2023-02-10T11:32:49;7.10;99.90
31133;DHT22;17779;50.942;4.026;2023-02-10T11:35:16;7.40;99.90
31133;DHT22;17779;50.942;4.026;2023-02-10T11:37:42;7.30;99.90
31133;DHT22;17779;50.942;4.026;2023-02-10T11:40:19;7.40;99.90
31133;DHT22;17779;50.942;4.026;2023-02-10T11:42:50;7.40;99.90
31133;DHT22;17779;50.942;4.026;2023-02-10T11:45:18;7.30;99.90
31133;DHT22;17779;50.942;4.026;2023-02-10T11:47:44;7.30;99.90
31133;DHT22;17779;50.942;4.026;2023-02-10T11:50:22;7.30;99.90
31133;DHT22;17779;50.942;4.026;2023-02-10T11:52:48;7.30;99.90
31133;DHT22;17779;50.942;4.026;2023-02-10T11:55:15;7.10;99.90
31133;DHT22;17779;50.942;4.026;2023-02-10T11:57:49;7.10;99.90
31133;DHT22;17779;50.942;4.026;2023-02-10T12:00:37;7.20;99.90
31133;DHT22;17779;50.942;4.026;2023-02-10T12:03:12;7.10;99.90
31133;DHT22;17779;50.942;4.026;2023-02-10T12:05:52;7.20;99.90
31133;DHT22;17779;50.942;4.026;2023-02-10T12:08:27;7.10;99.90
31133;DHT22;17779;50.942;4.026;2023-02-10T12:10:57;7.30;99.90
31133;DHT22;17779;50.942;4.026;2023-02-10T12:18:57;7.10;99.90
31133;DHT22;17779;50.942;4.026;2023-02-10T12:29:06;7.00;99.90
31133;DHT22;17779;50.942;4.026;2023-02-10T12:42:26;7.20;99.90
31133;DHT22;17779;50.942;4.026;2023-02-10T12:44:58;7.10;99.90
31133;DHT22;17779;50.942;4.026;2023-02-10T12:53:40;7.30;99.90
31133;DHT22;17779;50.942;4.026;2023-02-10T12:56:00;7.30;99.90
31133;DHT22;17779;50.942;4.026;2023-02-10T12:58:31;7.40;99.90
31133;DHT22;17779;50.942;4.026;2023-02-10T13:03:33;7.50;99.90
31133;DHT22;17779;50.942;4.026;2023-02-10T13:08:55;7.70;99.90
31133;DHT22;17779;50.942;4.026;2023-02-10T13:11:48;7.70;99.90
31133;DHT22;17779;50.942;4.026;2023-02-10T13:14:12;7.60;99.90
31133;DHT22;17779;50.942;4.026;2023-02-10T13:16:39;7.50;99.90
31133;DHT22;17779;50.942;4.026;2023-02-10T13:19:21;7.70;99.90
31133;DHT22;17779;50.942;4.026;2023-02-10T13:24:27;7.50;99.90
31133;DHT22;17779;50.942;4.026;2023-02-10T13:30:00;7.70;99.90
31133;DHT22;17779;50.942;4.026;2023-02-10T13:35:22;7.90;99.90
31133;DHT22;17779;50.942;4.026;2023-02-10T13:37:49;8.50;99.90
31133;DHT22;17779;50.942;4.026;2023-02-10T13:40:17;8.80;99.90
31133;DHT22;17779;50.942;4.026;2023-02-10T13:43:00;8.90;99.90
31133;DHT22;17779;50.942;4.026;2023-02-10T13:45:29;9.10;99.90
31133;DHT22;17779;50.942;4.026;2023-02-10T13:48:00;8.70;99.90
31133;DHT22;17779;50.942;4.026;2023-02-10T13:50:41;8.30;99.90
31133;DHT22;17779;50.942;4.026;2023-02-10T13:56:01;8.30;99.90
31133;DHT22;17779;50.942;4.026;2023-02-10T13:58:29;8.40;99.90
31133;DHT22;17779;50.942;4.026;2023-02-10T14:00:56;8.30;99.90
31133;DHT22;17779;50.942;4.026;2023-02-10T14:03:29;8.10;99.90
31133;DHT22;17779;50.942;4.026;2023-02-10T14:05:57;8.00;99.90
31133;DHT22;17779;50.942;4.026;2023-02-10T14:08:31;8.20;99.90
31133;DHT22;17779;50.942;4.026;2023-02-10T14:10:58;8.30;99.90
31133;DHT22;17779;50.942;4.026;2023-02-10T14:13:24;8.40;99.90
31133;DHT22;17779;50.942;4.026;2023-02-10T14:16:02;8.60;99.90
31133;DHT22;17779;50.942;4.026;2023-02-10T14:18:30;8.70;99.90
31133;DHT22;17779;50.942;4.026;2023-02-10T14:21:03;8.60;99.90
31133;DHT22;17779;50.942;4.026;2023-02-10T14:23:30;8.70;99.90
31133;DHT22;17779;50.942;4.026;2023-02-10T14:25:58;8.90;99.90
31133;DHT22;17779;50.942;4.026;2023-02-10T14:28:32;8.90;99.90
31133;DHT22;17779;50.942;4.026;2023-02-10T14:31:01;9.30;99.90
31133;DHT22;17779;50.942;4.026;2023-02-10T14:33:29;9.30;99.90
31133;DHT22;17779;50.942;4.026;2023-02-10T14:35:56;9.30;99.90
31133;DHT22;17779;50.942;4.026;2023-02-10T14:38:25;9.20;99.90
31133;DHT22;17779;50.942;4.026;2023-02-10T14:40:51;8.90;99.90
31133;DHT22;17779;50.942;4.026;2023-02-10T14:43:18;8.80;99.90
31133;DHT22;17779;50.942;4.026;2023-02-10T14:45:45;8.90;99.90
31133;DHT22;17779;50.942;4.026;2023-02-10T14:48:12;8.80;99.90
31133;DHT22;17779;50.942;4.026;2023-02-10T14:50:39;8.70;99.90
31133;DHT22;17779;50.942;4.026;2023-02-10T14:53:05;8.70;99.90
31133;DHT22;17779;50.942;4.026;2023-02-10T14:55:34;8.70;99.90
31133;DHT22;17779;50.942;4.026;2023-02-10T14:58:04;8.70;99.90
31133;DHT22;17779;50.942;4.026;2023-02-10T15:00:31;8.60;99.90
31133;DHT22;17779;50.942;4.026;2023-02-10T15:02:58;8.60;99.90
31133;DHT22;17779;50.942;4.026;2023-02-10T15:05:24;8.70;99.90
31133;DHT22;17779;50.942;4.026;2023-02-10T15:07:52;8.80;99.90
31133;DHT22;17779;50.942;4.026;2023-02-10T15:12:45;8.90;99.90
31133;DHT22;17779;50.942;4.026;2023-02-10T15:18:04;8.90;99.90
31133;DHT22;17779;50.942;4.026;2023-02-10T15:20:31;8.60;99.90
31133;DHT22;17779;50.942;4.026;2023-02-10T15:25:28;8.40;99.90
31133;DHT22;17779;50.942;4.026;2023-02-10T15:33:18;8.30;99.90
31133;DHT22;17779;50.942;4.026;2023-02-10T15:38:50;8.40;99.90
31133;DHT22;17779;50.942;4.026;2023-02-10T15:41:27;8.40;99.90
31133;DHT22;17779;50.942;4.026;2023-02-10T15:43:54;8.40;99.90
31133;DHT22;17779;50.942;4.026;2023-02-10T15:46:22;8.40;99.90
31133;DHT22;17779;50.942;4.026;2023-02-10T15:48:48;8.40;99.90
31133;DHT22;17779;50.942;4.026;2023-02-10T15:51:26;8.50;99.90
31133;DHT22;17779;50.942;4.026;2023-02-10T15:53:53;8.70;99.90
31133;DHT22;17779;50.942;4.026;2023-02-10T15:56:24;8.40;99.90
31133;DHT22;17779;50.942;4.026;2023-02-10T15:58:50;8.30;99.90
31133;DHT22;17779;50.942;4.026;2023-02-10T16:01:15;8.20;99.90
31133;DHT22;17779;50.942;4.026;2023-02-10T16:03:41;8.10;99.90
31133;DHT22;17779;50.942;4.026;2023-02-10T16:06:09;8.00;99.90
31133;DHT22;17779;50.942;4.026;2023-02-10T16:08:37;8.10;99.90
31133;DHT22;17779;50.942;4.026;2023-02-10T16:11:03;8.00;99.90
31133;DHT22;17779;50.942;4.026;2023-02-10T16:13:29;8.00;99.90
31133;DHT22;17779;50.942;4.026;2023-02-10T16:15:55;7.90;99.90
31133;DHT22;17779;50.942;4.026;2023-02-10T16:18:22;7.90;99.90
31133;DHT22;17779;50.942;4.026;2023-02-10T16:20:48;8.00;99.90
31133;DHT22;17779;50.942;4.026;2023-02-10T16:23:15;7.90;99.90
31133;DHT22;17779;50.942;4.026;2023-02-10T16:25:41;7.80;99.90
31133;DHT22;17779;50.942;4.026;2023-02-10T16:28:07;7.70;99.90
31133;DHT22;17779;50.942;4.026;2023-02-10T16:30:32;7.80;99.90
31133;DHT22;17779;50.942;4.026;2023-02-10T16:32:58;7.80;99.90
31133;DHT22;17779;50.942;4.026;2023-02-10T16:35:25;7.80;99.90
31133;DHT22;17779;50.942;4.026;2023-02-10T16:37:51;7.80;99.90
31133;DHT22;17779;50.942;4.026;2023-02-10T16:40:28;7.80;99.90
31133;DHT22;17779;50.942;4.026;2023-02-10T16:42:54;7.70;99.90
31133;DHT22;17779;50.942;4.026;2023-02-10T16:45:21;7.80;99.90
31133;DHT22;17779;50.942;4.026;2023-02-10T16:47:47;7.70;99.90
31133;DHT22;17779;50.942;4.026;2023-02-10T16:50:18;7.70;99.90
31133;DHT22;17779;50.942;4.026;2023-02-10T16:52:45;7.60;99.90
31133;DHT22;17779;50.942;4.026;2023-02-10T16:55:11;7.50;99.90
31133;DHT22;17779;50.942;4.026;2023-02-10T16:57:36;7.50;99.90
31133;DHT22;17779;50.942;4.026;2023-02-10T17:00:02;7.50;99.90
31133;DHT22;17779;50.942;4.026;2023-02-10T17:02:28;7.50;99.90
31133;DHT22;17779;50.942;4.026;2023-02-10T17:04:54;7.40;99.90
31133;DHT22;17779;50.942;4.026;2023-02-10T17:07:20;7.30;99.90
31133;DHT22;17779;50.942;4.026;2023-02-10T17:09:45;7.30;99.90
31133;DHT22;17779;50.942;4.026;2023-02-10T17:12:12;7.20;99.90
31133;DHT22;17779;50.942;4.026;2023-02-10T17:14:37;7.30;99.90
31133;DHT22;17779;50.942;4.026;2023-02-10T17:17:03;7.20;99.90
31133;DHT22;17779;50.942;4.026;2023-02-10T17:19:29;7.30;99.90
31133;DHT22;17779;50.942;4.026;2023-02-10T17:21:57;7.40;99.90
31133;DHT22;17779;50.942;4.026;2023-02-10T17:24:23;7.50;99.90
31133;DHT22;17779;50.942;4.026;2023-02-10T17:26:48;7.30;99.90
31133;DHT22;17779;50.942;4.026;2023-02-10T17:29:16;7.30;99.90
31133;DHT22;17779;50.942;4.026;2023-02-10T17:31:42;7.30;99.90
31133;DHT22;17779;50.942;4.026;2023-02-10T17:34:08;7.30;99.90
31133;DHT22;17779;50.942;4.026;2023-02-10T17:36:34;7.30;99.90
31133;DHT22;17779;50.942;4.026;2023-02-10T17:39:00;7.40;99.90
31133;DHT22;17779;50.942;4.026;2023-02-10T17:41:27;7.20;99.90
31133;DHT22;17779;50.942;4.026;2023-02-10T17:43:54;7.10;99.90
31133;DHT22;17779;50.942;4.026;2023-02-10T17:46:20;7.00;99.90
31133;DHT22;17779;50.942;4.026;2023-02-10T17:48:46;6.90;99.90
31133;DHT22;17779;50.942;4.026;2023-02-10T17:51:13;7.00;99.90